Terminal Aerodrome Forecast
Issued by NWS

Current Version | Previous Version | Graphics & Text | Print | Product List | Glossary On
Versions: 1 2 3 4 5 6 7 8 9 10 11 12 13 14 15 16 17 18 19 20 21 22 23 24 25 26 27 28 29 30 31 32 33 34 35 36 37 38 39 40 41 42 43 44 45 46 47 48 49 50
000
FTUS41 KRNK 022040 AAA
TAFLWB
TAF AMD
KLWB 022040Z 0221/0318 24006KT P6SM BKN035 OVC250
     FM022200 24008G19KT 5SM SHRA VCTS BKN040CB OVC080
      TEMPO 0222/0224 VRB12G25KT 1SM +TSRA BR OVC015CB
     FM030000 26007KT 4SM SHRA BR VCTS BKN018 OVC028CB
     FM030500 VRB03KT 4SM BR VCSH OVC015
     FM031500 27008KT P6SM OVC025=

USA.gov is the U.S. government's official web portal to all federal, state and local government web resources and services.